Time;durP1;ratioP1;P1;durP2;ratioP2;P2;SDS_P1;SDS_P2;PMS_P1;PMS_P2;Temp;Humidity;BMP_temperature;BMP_pressure;BME280_temperature;BME280_humidity;BME280_pressure;Samples;Min_cycle;Max_cycle;Signal;HPM_P1;HPM_P2
2022/01/13 00:01:41;;;;;;;10.70;2.38;;;;;;;2.56;100.00;102364.97;6131576;23;20060;-79
2022/01/13 00:04:46;;;;;;;9.13;3.05;;;;;;;2.49;100.00;102364.78;6118387;23;20058;-79
2022/01/13 00:07:50;;;;;;;14.50;3.45;;;;;;;2.44;100.00;102367.03;6148243;23;20034;-79
2022/01/13 00:10:53;;;;;;;6.20;2.70;;;;;;;2.44;100.00;102356.84;6131040;23;20058;-79
2022/01/13 00:14:08;;;;;;;7.05;2.80;;;;;;;2.52;100.00;102361.34;6135880;23;20035;-78
2022/01/13 00:17:26;;;;;;;18.33;3.15;;;;;;;2.48;100.00;102345.91;6149039;23;20427;-78
2022/01/13 00:23:53;;;;;;;;;;;;;;;2.46;100.00;102332.53;6135292;23;20047;-79
2022/01/13 00:26:56;;;;;;;12.20;3.47;;;;;;;2.46;100.00;102331.72;6131338;23;19911;-79
2022/01/13 00:30:02;;;;;;;18.50;3.42;;;;;;;2.52;100.00;102341.28;6148849;23;20385;-79
2022/01/13 00:33:07;;;;;;;9.25;3.03;;;;;;;2.54;100.00;102334.28;6131390;23;20042;-79
2022/01/13 00:36:12;;;;;;;2.45;2.25;;;;;;;2.49;100.00;102331.78;6147933;23;20038;-79
2022/01/13 00:39:16;;;;;;;8.00;3.08;;;;;;;2.49;100.00;102342.03;6130892;23;20058;-79
2022/01/13 00:42:22;;;;;;;12.43;3.72;;;;;;;2.51;100.00;102340.50;6149019;23;20058;-79
2022/01/13 00:45:25;;;;;;;4.57;2.50;;;;;;;2.52;100.00;102342.09;6114037;23;20038;-79
2022/01/13 00:48:29;;;;;;;10.80;2.10;;;;;;;2.56;100.00;102328.41;6130588;23;20042;-79
2022/01/13 00:51:33;;;;;;;15.32;2.80;;;;;;;2.58;100.00;102324.13;6148815;23;20047;-79
2022/01/13 00:54:36;;;;;;;3.03;1.52;;;;;;;2.59;100.00;102335.94;6104803;23;20047;-79
2022/01/13 00:57:39;;;;;;;6.78;3.05;;;;;;;2.61;100.00;102322.63;6122239;23;20055;-79
2022/01/13 01:00:45;;;;;;;9.27;2.15;;;;;;;2.65;100.00;102334.50;6148100;23;20058;-79
2022/01/13 01:03:49;;;;;;;14.75;3.90;;;;;;;2.64;100.00;102339.19;6114019;23;20043;-79
2022/01/13 01:06:53;;;;;;;6.40;2.38;;;;;;;2.67;100.00;102332.19;6112002;23;20039;-79
2022/01/13 01:09:58;;;;;;;2.83;2.22;;;;;;;2.65;100.00;102329.78;6130986;23;20042;-79
2022/01/13 01:13:10;;;;;;;1.73;1.35;;;;;;;2.65;100.00;102329.78;6137133;23;20047;-79
2022/01/13 01:16:14;;;;;;;1.00;1.00;;;;;;;2.66;100.00;102323.16;6127582;23;20046;-79
2022/01/13 01:19:25;;;;;;;3.72;2.90;;;;;;;2.65;100.00;102318.78;6148478;23;20526;-79
2022/01/13 01:22:41;;;;;;;16.52;2.63;;;;;;;2.62;100.00;102324.22;6148762;23;20055;-78
2022/01/13 01:26:09;;;;;;;2.63;2.42;;;;;;;2.61;100.00;102317.94;6139422;23;20058;-79
2022/01/13 01:32:37;;;;;;;2.55;2.35;;;;;;;2.54;100.00;102320.53;6148891;23;20046;-79
2022/01/13 01:35:41;;;;;;;26.92;2.05;;;;;;;2.49;100.00;102320.78;6137629;23;20046;-79
2022/01/13 01:38:48;;;;;;;19.17;2.63;;;;;;;2.46;100.00;102316.03;6148784;23;20575;-78
2022/01/13 01:41:55;;;;;;;2.35;2.00;;;;;;;2.35;100.00;102315.00;6131059;23;20038;-79
2022/01/13 01:45:00;;;;;;;2.47;1.75;;;;;;;2.29;100.00;102321.94;6090680;23;20053;-78
2022/01/13 01:48:04;;;;;;;25.90;2.72;;;;;;;2.26;100.00;102311.66;6126748;23;20097;-79
2022/01/13 01:51:08;;;;;;;2.67;1.23;;;;;;;2.23;100.00;102313.16;6111760;23;20038;-79
2022/01/13 01:54:12;;;;;;;3.25;2.00;;;;;;;2.21;100.00;102320.16;6124903;23;20043;-79
2022/01/13 01:57:17;;;;;;;6.65;1.85;;;;;;;2.21;100.00;102318.22;6094754;23;20410;-79
2022/01/13 02:00:24;;;;;;;15.85;2.83;;;;;;;2.17;100.00;102313.81;6130195;23;20058;-79
2022/01/13 02:03:29;;;;;;;4.78;2.95;;;;;;;2.20;100.00;102315.84;6090936;23;20500;-79
2022/01/13 02:06:35;;;;;;;7.50;3.55;;;;;;;2.18;100.00;102310.72;6124115;23;20522;-79
2022/01/13 02:09:41;;;;;;;3.60;1.60;;;;;;;2.20;100.00;102308.41;6129942;23;20042;-79
2022/01/13 02:12:49;;;;;;;8.50;2.30;;;;;;;2.17;100.00;102308.31;6129992;23;20042;-79
2022/01/13 02:19:03;;;;;;;4.70;1.98;;;;;;;2.12;100.00;102308.59;6154179;23;20038;-79
2022/01/13 02:22:08;;;;;;;8.43;3.80;;;;;;;2.07;100.00;102300.63;6155228;23;20038;-80
2022/01/13 02:25:16;;;;;;;2.03;1.35;;;;;;;1.99;100.00;102299.66;6116252;23;20038;-79
2022/01/13 02:28:19;;;;;;;4.07;1.98;;;;;;;1.96;100.00;102297.63;6131067;23;20042;-79
2022/01/13 02:31:24;;;;;;;2.85;1.73;;;;;;;2.01;100.00;102299.31;6132153;23;20105;-79
2022/01/13 02:34:28;;;;;;;19.33;1.95;;;;;;;2.10;100.00;102306.19;6099991;23;20039;-79
2022/01/13 02:37:32;;;;;;;4.68;2.13;;;;;;;2.15;100.00;102305.94;6114051;23;20050;-79
2022/01/13 02:40:35;;;;;;;8.80;1.63;;;;;;;2.18;100.00;102309.91;6149416;23;20618;-79
2022/01/13 02:43:39;;;;;;;3.38;1.92;;;;;;;2.07;100.00;102311.63;6118482;23;20039;-79
2022/01/13 02:49:54;;;;;;;6.15;3.35;;;;;;;2.06;100.00;102301.75;6134978;23;20059;-79
2022/01/13 02:52:57;;;;;;;1.88;1.50;;;;;;;2.05;100.00;102305.69;6128457;23;20039;-79
2022/01/13 02:56:04;;;;;;;1.13;0.88;;;;;;;2.16;100.00;102313.03;6127944;23;20054;-79
2022/01/13 02:59:08;;;;;;;13.85;2.05;;;;;;;2.22;100.00;102308.03;6130835;23;20038;-79
2022/01/13 03:02:11;;;;;;;2.53;1.58;;;;;;;2.27;100.00;102318.75;6149684;23;20038;-80
2022/01/13 03:05:15;;;;;;;1.73;1.20;;;;;;;2.20;100.00;102307.59;6093009;23;20393;-80
2022/01/13 03:08:19;;;;;;;9.98;3.83;;;;;;;2.27;100.00;102307.75;6113087;23;20492;-80
2022/01/13 03:11:32;;;;;;;4.47;2.35;;;;;;;2.28;100.00;102314.84;6126601;23;20057;-80
2022/01/13 03:14:35;;;;;;;8.50;1.50;;;;;;;2.30;100.00;102307.03;6106356;23;20042;-80
2022/01/13 03:17:38;;;;;;;2.13;1.25;;;;;;;2.33;100.00;102317.31;6092733;23;20054;-80
2022/01/13 03:20:42;;;;;;;2.58;2.28;;;;;;;2.35;100.00;102308.69;6149492;23;20113;-81
2022/01/13 03:23:45;;;;;;;2.35;1.98;;;;;;;2.39;100.00;102313.13;6134855;23;20043;-83
2022/01/13 03:26:49;;;;;;;1.23;1.23;;;;;;;2.37;100.00;102311.88;6138053;23;20373;-83
2022/01/13 03:29:53;;;;;;;2.47;1.40;;;;;;;2.35;100.00;102301.25;6149508;23;20042;-83
2022/01/13 03:32:56;;;;;;;22.52;2.30;;;;;;;2.29;100.00;102298.00;6149450;23;20388;-83
2022/01/13 03:36:02;;;;;;;1.85;1.30;;;;;;;2.30;100.00;102305.09;6116957;23;20149;-83
2022/01/13 03:39:07;;;;;;;1.88;1.08;;;;;;;2.26;100.00;102295.16;6148041;23;20038;-84
2022/01/13 03:42:10;;;;;;;5.05;4.20;;;;;;;2.25;100.00;102288.84;6107240;23;20043;-83
2022/01/13 03:45:13;;;;;;;7.70;3.67;;;;;;;2.39;100.00;102288.38;6083988;23;20043;-82
2022/01/13 03:48:17;;;;;;;7.50;2.55;;;;;;;2.48;100.00;102286.22;6149648;23;20042;-83
2022/01/13 03:51:20;;;;;;;1.48;1.38;;;;;;;2.45;100.00;102281.44;6149304;23;20043;-83
2022/01/13 03:54:36;;;;;;;9.25;1.80;;;;;;;2.42;100.00;102287.66;6124034;23;20042;-82
2022/01/13 03:58:17;;;;;;;21.00;2.45;;;;;;;2.39;100.00;102285.63;6104433;23;20492;-83
2022/01/13 04:01:52;;;;;;;3.35;1.45;;;;;;;2.40;100.00;102287.22;6148660;23;20046;-83
2022/01/13 04:04:56;;;;;;;7.22;2.45;;;;;;;2.33;100.00;102284.31;6106558;23;20051;-82
2022/01/13 04:07:59;;;;;;;3.72;1.42;;;;;;;2.32;100.00;102271.72;6110953;23;20042;-82
2022/01/13 04:11:06;;;;;;;7.32;1.38;;;;;;;2.33;100.00;102278.03;6131519;23;20041;-81
2022/01/13 04:14:10;;;;;;;3.00;2.53;;;;;;;2.31;100.00;102281.16;6113856;23;20042;-81
2022/01/13 04:17:16;;;;;;;4.10;2.70;;;;;;;2.27;100.00;102285.78;6148871;23;20042;-78
2022/01/13 04:20:20;;;;;;;10.18;2.55;;;;;;;2.22;100.00;102288.78;6117665;23;20038;-79
2022/01/13 04:23:23;;;;;;;9.48;3.08;;;;;;;2.23;100.00;102284.91;6145906;23;20065;-79
2022/01/13 04:26:28;;;;;;;3.78;1.83;;;;;;;2.23;100.00;102279.41;6131052;23;20039;-79
2022/01/13 04:29:41;;;;;;;8.27;1.85;;;;;;;2.27;100.00;102280.28;6148452;23;20058;-79
2022/01/13 04:32:44;;;;;;;14.73;3.80;;;;;;;2.22;100.00;102277.78;6148203;23;20042;-79
2022/01/13 04:35:48;;;;;;;19.67;3.53;;;;;;;2.18;100.00;102277.72;6149149;23;20065;-79
2022/01/13 04:38:51;;;;;;;12.07;3.25;;;;;;;2.16;100.00;102287.50;6131027;23;20055;-79
2022/01/13 04:41:56;;;;;;;5.95;2.67;;;;;;;2.13;100.00;102277.19;6125888;23;20491;-79
2022/01/13 04:44:59;;;;;;;25.35;1.42;;;;;;;2.05;100.00;102283.69;6143557;23;20062;-79
2022/01/13 04:48:03;;;;;;;4.82;1.08;;;;;;;2.04;100.00;102279.34;6130703;23;20417;-79
2022/01/13 04:51:06;;;;;;;14.90;1.75;;;;;;;2.04;100.00;102268.34;6130573;23;20389;-79
2022/01/13 04:54:10;;;;;;;4.13;1.70;;;;;;;2.07;100.00;102284.13;6121867;23;20058;-79
2022/01/13 04:57:17;;;;;;;1.67;0.93;;;;;;;1.94;100.00;102277.97;6140896;23;20042;-79
2022/01/13 05:00:22;;;;;;;2.95;1.63;;;;;;;2.03;100.00;102270.34;6130765;23;20042;-79
2022/01/13 05:03:25;;;;;;;1.60;1.55;;;;;;;2.13;100.00;102274.44;6124252;23;20043;-80
2022/01/13 05:06:29;;;;;;;3.67;2.88;;;;;;;2.17;100.00;102269.81;6095683;23;20046;-79
2022/01/13 05:09:33;;;;;;;4.22;2.28;;;;;;;2.22;100.00;102266.81;6148443;23;20042;-79
2022/01/13 05:12:44;;;;;;;11.57;2.50;;;;;;;2.22;100.00;102269.56;6115424;23;20042;-79
2022/01/13 05:15:49;;;;;;;;;;;;;;;2.26;100.00;102267.66;6129033;23;20496;-79
2022/01/13 05:19:09;;;;;;;2.20;1.95;;;;;;;2.31;100.00;102272.91;6131682;23;19912;-79
2022/01/13 05:25:19;;;;;;;3.50;1.40;;;;;;;2.24;100.00;102270.78;6137291;23;20043;-79
2022/01/13 05:28:22;;;;;;;4.00;2.45;;;;;;;2.27;100.00;102261.03;6149112;23;20487;-79
2022/01/13 05:31:26;;;;;;;5.32;2.78;;;;;;;2.29;100.00;102255.97;6131413;23;20030;-79
2022/01/13 05:34:29;;;;;;;10.55;3.78;;;;;;;2.30;100.00;102265.78;6109066;23;20042;-79
2022/01/13 05:37:33;;;;;;;7.38;3.05;;;;;;;2.34;100.00;102252.91;6148309;23;20050;-79
2022/01/13 05:40:37;;;;;;;1.58;1.45;;;;;;;2.27;100.00;102252.78;6130827;23;20496;-79
2022/01/13 05:43:41;;;;;;;7.50;1.70;;;;;;;2.18;100.00;102244.75;6135719;23;20059;-79
2022/01/13 05:46:45;;;;;;;4.03;1.73;;;;;;;2.19;100.00;102237.28;6095966;23;20388;-79
2022/01/13 05:49:48;;;;;;;4.68;2.28;;;;;;;2.20;100.00;102236.13;6130303;23;20052;-79
2022/01/13 05:52:52;;;;;;;2.55;1.20;;;;;;;2.20;100.00;102230.63;6101762;23;20390;-79
2022/01/13 05:55:56;;;;;;;2.60;1.83;;;;;;;2.21;100.00;102226.72;6122251;23;20118;-80
2022/01/13 05:58:59;;;;;;;6.00;1.70;;;;;;;2.19;100.00;102224.34;6130908;23;20058;-79
2022/01/13 06:02:03;;;;;;;4.07;1.95;;;;;;;2.22;100.00;102222.81;6130797;23;20046;-87
2022/01/13 06:05:08;;;;;;;2.20;1.42;;;;;;;2.26;100.00;102229.19;6131932;23;20046;-80
2022/01/13 06:08:12;;;;;;;1.52;1.42;;;;;;;2.24;100.00;102229.56;6131817;23;20412;-80
2022/01/13 06:11:21;;;;;;;3.63;2.17;;;;;;;2.24;100.00;102239.75;6131721;23;20058;-80
2022/01/13 06:14:24;;;;;;;3.88;1.67;;;;;;;2.19;100.00;102245.53;6130024;23;20050;-80
2022/01/13 06:17:29;;;;;;;1.13;0.75;;;;;;;2.27;100.00;102248.06;6149806;23;20042;-81
2022/01/13 06:20:32;;;;;;;9.38;2.40;;;;;;;2.29;100.00;102250.47;6149770;23;20039;-80
2022/01/13 06:23:35;;;;;;;2.30;1.10;;;;;;;2.34;100.00;102257.63;6120515;23;20038;-79
2022/01/13 06:26:39;;;;;;;1.83;1.73;;;;;;;2.35;100.00;102250.97;6088491;23;20039;-80
2022/01/13 06:29:42;;;;;;;3.30;1.70;;;;;;;2.41;100.00;102247.56;6131722;23;20046;-80
2022/01/13 06:32:46;;;;;;;2.70;1.73;;;;;;;2.43;100.00;102250.75;6131542;23;20046;-80
2022/01/13 06:35:50;;;;;;;14.25;2.58;;;;;;;2.37;100.00;102243.94;6123432;23;20507;-80
2022/01/13 06:38:54;;;;;;;6.43;2.15;;;;;;;2.39;100.00;102249.88;6149850;23;20042;-78
2022/01/13 06:41:57;;;;;;;10.70;2.95;;;;;;;2.28;100.00;102248.88;6131362;23;20058;-78
2022/01/13 06:45:00;;;;;;;4.43;1.90;;;;;;;2.27;100.00;102253.56;6125550;23;20038;-79
2022/01/13 06:48:04;;;;;;;5.25;2.10;;;;;;;2.30;100.00;102250.09;6149681;23;20042;-79
2022/01/13 06:51:08;;;;;;;4.25;0.95;;;;;;;2.30;100.00;102252.03;6150130;23;20042;-81
2022/01/13 06:54:12;;;;;;;2.47;1.83;;;;;;;2.32;100.00;102257.97;6134227;23;20424;-81
2022/01/13 06:57:15;;;;;;;10.15;1.88;;;;;;;2.25;100.00;102249.59;6098254;23;20046;-81
2022/01/13 07:00:20;;;;;;;11.55;2.80;;;;;;;2.20;100.00;102258.13;6130957;23;20385;-81
2022/01/13 07:03:24;;;;;;;1.95;1.23;;;;;;;2.18;100.00;102265.94;6143969;23;20046;-82
2022/01/13 07:06:27;;;;;;;5.07;2.70;;;;;;;2.17;100.00;102261.56;6143664;23;20042;-81
2022/01/13 07:09:31;;;;;;;2.38;2.13;;;;;;;2.20;100.00;102258.13;6131531;23;20038;-82
2022/01/13 07:12:35;;;;;;;6.10;2.92;;;;;;;2.24;100.00;102256.25;6131267;23;20042;-81
2022/01/13 07:15:38;;;;;;;2.35;1.92;;;;;;;2.23;100.00;102258.19;6135618;23;20063;-80
2022/01/13 07:18:42;;;;;;;10.70;1.80;;;;;;;2.23;100.00;102257.41;6149293;23;20038;-82
2022/01/13 07:21:45;;;;;;;6.15;2.50;;;;;;;2.17;100.00;102270.63;6149639;23;20058;-82
2022/01/13 07:24:49;;;;;;;10.00;2.05;;;;;;;2.11;100.00;102265.78;6101085;23;20039;-83
2022/01/13 07:27:52;;;;;;;1.67;1.45;;;;;;;2.13;100.00;102268.97;6149648;23;20384;-83
2022/01/13 07:30:57;;;;;;;22.20;1.83;;;;;;;2.06;100.00;102271.53;6131954;23;20484;-81
2022/01/13 07:34:00;;;;;;;4.15;2.88;;;;;;;2.01;100.00;102260.84;6128673;23;20043;-81
2022/01/13 07:37:04;;;;;;;7.22;2.50;;;;;;;1.99;100.00;102268.66;6087118;23;20444;-80
2022/01/13 07:40:13;;;;;;;12.95;2.05;;;;;;;1.95;100.00;102273.28;6132007;23;20046;-81
2022/01/13 07:43:22;;;;;;;4.60;2.55;;;;;;;1.93;100.00;102270.06;6127873;23;20047;-80
2022/01/13 07:46:26;;;;;;;4.28;2.50;;;;;;;1.92;100.00;102282.22;6118326;23;20495;-80
2022/01/13 07:49:30;;;;;;;2.92;2.65;;;;;;;1.90;100.00;102284.53;6148762;23;20487;-80
2022/01/13 07:52:34;;;;;;;9.18;2.05;;;;;;;1.85;100.00;102284.78;6149153;23;20042;-80
2022/01/13 07:55:38;;;;;;;1.88;1.65;;;;;;;1.79;100.00;102291.72;6125057;23;20046;-80
2022/01/13 07:58:43;;;;;;;6.60;2.25;;;;;;;1.78;100.00;102298.34;6148973;23;20039;-80
2022/01/13 08:01:47;;;;;;;5.45;2.28;;;;;;;1.79;100.00;102291.72;6131500;23;20042;-79
2022/01/13 08:04:51;;;;;;;7.75;1.83;;;;;;;1.77;100.00;102288.53;6111884;23;20059;-79
2022/01/13 08:07:54;;;;;;;1.65;1.52;;;;;;;1.76;100.00;102285.00;6134758;23;20047;-79
2022/01/13 08:10:58;;;;;;;8.32;3.63;;;;;;;1.79;100.00;102299.97;6129348;23;20044;-79
2022/01/13 08:14:02;;;;;;;5.40;2.58;;;;;;;1.78;100.00;102303.84;6128386;23;20063;-79
2022/01/13 08:17:07;;;;;;;3.08;2.28;;;;;;;1.73;100.00;102299.44;6129911;23;20607;-79
2022/01/13 08:20:11;;;;;;;7.80;2.72;;;;;;;1.78;100.00;102301.91;6098629;23;20043;-79
2022/01/13 08:23:14;;;;;;;10.40;2.10;;;;;;;1.79;100.00;102305.47;6082216;23;20061;-78
2022/01/13 08:26:18;;;;;;;3.38;2.53;;;;;;;1.75;100.00;102302.63;6127600;23;20066;-78
2022/01/13 08:29:22;;;;;;;15.30;3.33;;;;;;;1.78;100.00;102307.41;6132101;23;20039;-79
2022/01/13 08:32:25;;;;;;;9.77;3.40;;;;;;;1.81;100.00;102311.41;6148986;23;20039;-79
2022/01/13 08:35:29;;;;;;;2.45;1.58;;;;;;;1.77;100.00;102316.00;6106212;23;20566;-79
2022/01/13 08:38:34;;;;;;;5.30;2.00;;;;;;;1.63;100.00;102310.16;6109880;23;20042;-79
2022/01/13 08:41:39;;;;;;;2.22;1.67;;;;;;;1.64;100.00;102311.75;6117259;23;20039;-79
2022/01/13 08:44:42;;;;;;;2.47;0.95;;;;;;;1.78;100.00;102317.59;6104152;23;20489;-79
2022/01/13 08:47:46;;;;;;;0.60;0.60;;;;;;;1.80;100.00;102309.81;6110603;23;20396;-80
2022/01/13 08:50:49;;;;;;;6.13;2.03;;;;;;;1.82;100.00;102308.28;6126449;23;20405;-79
2022/01/13 08:53:53;;;;;;;6.30;2.05;;;;;;;1.86;100.00;102308.38;6076798;23;20039;-79
2022/01/13 08:56:57;;;;;;;1.08;1.02;;;;;;;1.87;100.00;102307.22;6137858;23;20042;-80
2022/01/13 09:00:04;;;;;;;2.33;1.38;;;;;;;1.88;100.00;102306.88;6130621;23;20046;-80
2022/01/13 09:03:07;;;;;;;3.45;1.23;;;;;;;1.94;100.00;102310.13;6148554;23;20515;-81
2022/01/13 09:06:11;;;;;;;0.93;0.93;;;;;;;1.97;100.00;102312.19;6115610;23;20046;-80
2022/01/13 09:09:14;;;;;;;1.55;1.15;;;;;;;1.99;100.00;102307.13;6129767;23;20042;-79
2022/01/13 09:12:18;;;;;;;4.15;2.10;;;;;;;2.03;100.00;102308.81;6130665;23;20042;-79
2022/01/13 09:15:39;;;;;;;2.40;1.15;;;;;;;2.09;100.00;102309.31;6100507;23;20066;-79
2022/01/13 09:21:48;;;;;;;3.35;1.85;;;;;;;2.17;100.00;102313.81;6149239;23;20046;-79
2022/01/13 09:24:52;;;;;;;5.03;2.53;;;;;;;2.16;100.00;102303.97;6148024;23;20566;-78
2022/01/13 09:27:55;;;;;;;4.93;1.15;;;;;;;2.20;100.00;102299.34;6108259;23;20042;-78
2022/01/13 09:30:59;;;;;;;2.55;1.77;;;;;;;2.22;100.00;102288.78;6149072;23;20105;-78
2022/01/13 09:34:03;;;;;;;1.05;0.63;;;;;;;2.32;100.00;102288.22;6128953;23;20401;-78
2022/01/13 09:37:06;;;;;;;2.20;1.23;;;;;;;2.35;100.00;102294.97;6147968;23;20046;-78
2022/01/13 09:40:11;;;;;;;3.80;1.30;;;;;;;2.41;100.00;102299.00;6113822;23;20038;-78
2022/01/13 09:43:14;;;;;;;3.33;1.92;;;;;;;2.44;100.00;102287.31;6124160;23;20047;-78
2022/01/13 09:46:18;;;;;;;10.02;2.95;;;;;;;2.48;100.00;102291.72;6114338;23;20046;-78
2022/01/13 09:49:21;;;;;;;12.27;3.67;;;;;;;2.52;100.00;102300.03;6148572;23;20042;-78
2022/01/13 09:52:25;;;;;;;17.45;3.28;;;;;;;2.56;100.00;102298.94;6114605;23;20042;-78
2022/01/13 09:55:28;;;;;;;9.95;2.03;;;;;;;2.64;100.00;102300.69;6125945;23;20038;-79
2022/01/13 09:58:31;;;;;;;7.05;3.20;;;;;;;2.62;100.00;102297.50;6130416;23;20057;-78
2022/01/13 10:01:35;;;;;;;10.60;3.13;;;;;;;2.61;100.00;102289.63;6148117;23;20046;-79
2022/01/13 10:04:46;;;;;;;12.20;3.03;;;;;;;2.51;100.00;102302.00;6142200;23;20043;-79
2022/01/13 10:07:52;;;;;;;7.75;2.95;;;;;;;2.67;100.00;102302.72;6147703;23;20046;-79
2022/01/13 10:10:55;;;;;;;5.15;2.25;;;;;;;2.65;100.00;102302.28;6107451;23;20038;-79
2022/01/13 10:14:12;;;;;;;2.08;1.95;;;;;;;2.63;100.00;102314.81;6122259;23;20042;-78
2022/01/13 10:17:16;;;;;;;3.47;2.58;;;;;;;2.64;100.00;102313.66;6130266;23;20046;-79
2022/01/13 10:20:21;;;;;;;2.72;1.92;;;;;;;2.70;100.00;102312.22;6130293;23;20381;-78
2022/01/13 10:23:25;;;;;;;1.92;1.83;;;;;;;2.77;100.00;102315.88;6141972;23;20042;-79
2022/01/13 10:26:30;;;;;;;5.43;2.35;;;;;;;2.80;100.00;102320.66;6094496;23;20046;-79
2022/01/13 10:29:59;;;;;;;2.63;1.52;;;;;;;2.86;100.00;102310.97;6130224;23;20038;-79
2022/01/13 10:33:19;;;;;;;16.42;2.58;;;;;;;2.60;100.00;102310.03;6107349;23;20043;-79
2022/01/13 10:36:22;;;;;;;7.28;2.38;;;;;;;2.86;100.00;102316.47;6107399;23;20058;-79
2022/01/13 10:40:03;;;;;;;2.78;2.13;;;;;;;2.94;100.00;102309.97;6126624;23;20047;-79
2022/01/13 10:43:10;;;;;;;14.23;2.25;;;;;;;3.02;100.00;102308.94;6097099;23;20043;-78
2022/01/13 10:46:14;;;;;;;4.38;1.58;;;;;;;3.08;100.00;102307.47;6086945;23;20047;-78
2022/01/13 10:49:17;;;;;;;12.02;1.40;;;;;;;3.07;100.00;102308.59;6107443;23;20040;-78
2022/01/13 10:52:26;;;;;;;8.60;2.80;;;;;;;3.11;100.00;102305.13;6095162;23;20046;-79
2022/01/13 10:55:34;;;;;;;2.08;0.73;;;;;;;3.16;100.00;102304.84;6108485;23;20038;-78
2022/01/13 10:58:41;;;;;;;6.30;2.28;;;;;;;3.17;100.00;102300.91;6109023;23;20043;-79
2022/01/13 11:01:45;;;;;;;0.63;0.63;;;;;;;3.24;100.00;102296.34;6094016;23;20058;-78
2022/01/13 11:04:48;;;;;;;13.40;2.75;;;;;;;3.28;100.00;102297.22;6107495;23;20047;-78
2022/01/13 11:07:52;;;;;;;5.28;1.95;;;;;;;3.32;100.00;102297.25;6113129;23;20409;-79
2022/01/13 11:10:58;;;;;;;6.20;2.08;;;;;;;3.29;100.00;102289.75;6091830;23;20047;-79
2022/01/13 11:14:09;;;;;;;1.27;1.15;;;;;;;3.25;100.00;102286.91;6111630;23;20496;-79
2022/01/13 11:17:21;;;;;;;5.85;2.00;;;;;;;3.40;100.00;102287.97;6096037;23;20047;-79
2022/01/13 11:20:29;;;;;;;1.48;0.93;;;;;;;3.44;100.00;102283.31;6103617;23;20097;-79
2022/01/13 11:23:33;;;;;;;1.10;0.98;;;;;;;3.45;100.00;102282.94;6139637;23;20055;-81
2022/01/13 11:26:38;;;;;;;2.35;1.42;;;;;;;3.43;100.00;102266.00;6106738;23;20042;-79
2022/01/13 11:29:42;;;;;;;0.85;0.85;;;;;;;3.52;100.00;102268.50;6131032;23;20105;-80
2022/01/13 11:32:47;;;;;;;1.08;0.95;;;;;;;3.56;100.00;102263.84;6118841;23;20058;-79
2022/01/13 11:35:57;;;;;;;1.02;0.95;;;;;;;3.57;100.00;102266.22;6142206;23;20393;-80
2022/01/13 11:39:08;;;;;;;2.85;2.10;;;;;;;3.62;100.00;102256.84;6149128;23;20500;-79
2022/01/13 11:42:13;;;;;;;3.80;2.35;;;;;;;3.71;100.00;102254.63;6148692;23;20051;-79
2022/01/13 11:45:19;;;;;;;4.35;1.63;;;;;;;3.90;100.00;102257.28;6138281;23;20038;-79
2022/01/13 11:48:29;;;;;;;2.50;1.33;;;;;;;4.00;100.00;102251.16;6148974;23;20042;-78
2022/01/13 11:51:42;;;;;;;3.47;0.88;;;;;;;4.06;100.00;102240.56;6131516;23;20101;-78
2022/01/13 11:54:47;;;;;;;2.25;0.90;;;;;;;4.07;100.00;102245.72;6128336;23;20043;-79
2022/01/13 11:57:52;;;;;;;5.47;1.30;;;;;;;4.18;100.00;102241.13;6150303;23;20050;-78
2022/01/13 12:00:55;;;;;;;2.35;0.73;;;;;;;4.30;100.00;102231.84;6149062;23;20046;-78
2022/01/13 12:04:01;;;;;;;2.20;1.65;;;;;;;4.39;100.00;102232.34;6110998;23;20493;-79
2022/01/13 12:07:38;;;;;;;5.68;1.23;;;;;;;4.42;100.00;102229.63;6081478;23;20058;-80
2022/01/13 12:10:41;;;;;;;4.57;2.22;;;;;;;4.46;100.00;102232.44;6103397;23;20039;-78
2022/01/13 12:13:46;;;;;;;3.45;1.30;;;;;;;4.48;100.00;102239.16;6114659;23;20042;-79
2022/01/13 12:17:06;;;;;;;13.25;2.13;;;;;;;4.53;100.00;102233.31;6103838;23;20093;-79
2022/01/13 12:23:45;;;;;;;1.08;0.95;;;;;;;4.73;100.00;102225.66;6111281;23;20390;-79
2022/01/13 12:26:53;;;;;;;16.60;4.35;;;;;;;4.78;100.00;102219.00;6105881;23;20042;-79
2022/01/13 12:30:07;;;;;;;5.93;1.85;;;;;;;4.88;100.00;102223.81;6150791;23;20042;-79
2022/01/13 12:33:12;;;;;;;4.10;1.83;;;;;;;5.03;100.00;102209.78;6148921;23;20042;-80
2022/01/13 12:36:24;;;;;;;3.85;1.45;;;;;;;5.22;100.00;102206.00;6135756;23;20547;-80
2022/01/13 12:39:27;;;;;;;2.80;1.42;;;;;;;5.27;100.00;102208.41;6144217;23;20038;-79
2022/01/13 12:42:37;;;;;;;0.95;0.95;;;;;;;5.35;100.00;102204.53;6144791;23;20042;-80
2022/01/13 12:45:41;;;;;;;18.73;3.08;;;;;;;5.43;100.00;102206.19;6121113;23;20038;-79
2022/01/13 12:48:49;;;;;;;16.17;3.03;;;;;;;5.45;100.00;102212.13;6130728;23;20038;-79
2022/01/13 12:51:53;;;;;;;6.38;2.97;;;;;;;5.56;100.00;102198.38;6131597;23;20038;-79
2022/01/13 12:54:57;;;;;;;3.03;1.88;;;;;;;5.85;100.00;102200.16;6098237;23;20038;-80
2022/01/13 12:58:01;;;;;;;10.32;3.08;;;;;;;5.97;100.00;102181.31;6148736;23;20042;-80
2022/01/13 13:01:13;;;;;;;12.45;2.35;;;;;;;6.20;100.00;102177.44;6149188;23;20058;-78
2022/01/13 13:04:17;;;;;;;5.68;2.40;;;;;;;6.38;100.00;102179.09;6087096;23;20059;-78
2022/01/13 13:07:20;;;;;;;1.25;0.82;;;;;;;6.47;100.00;102176.75;6108656;23;20424;-77
2022/01/13 13:10:24;;;;;;;1.77;1.25;;;;;;;6.46;100.00;102177.13;6148322;23;20058;-77
2022/01/13 13:13:30;;;;;;;3.40;0.98;;;;;;;6.51;100.00;102171.22;6123804;23;20038;-76
2022/01/13 13:16:41;;;;;;;2.28;0.98;;;;;;;6.50;100.00;102169.63;6137164;23;20381;-76
2022/01/13 13:19:45;;;;;;;5.10;1.48;;;;;;;6.42;100.00;102162.50;6130624;23;20386;-76
2022/01/13 13:22:51;;;;;;;3.75;1.17;;;;;;;6.46;100.00;102163.28;6148695;23;20058;-76
2022/01/13 13:25:56;;;;;;;2.03;1.20;;;;;;;6.46;100.00;102161.31;6134019;23;20038;-76
2022/01/13 13:29:00;;;;;;;0.95;0.88;;;;;;;6.51;100.00;102154.63;6141270;23;20046;-77
2022/01/13 13:32:04;;;;;;;2.13;1.38;;;;;;;6.53;100.00;102153.03;6148935;23;20393;-77
2022/01/13 13:35:13;;;;;;;0.57;0.50;;;;;;;6.64;100.00;102150.28;6109453;23;20046;-77
2022/01/13 13:38:18;;;;;;;3.80;0.82;;;;;;;6.80;100.00;102151.50;6148766;23;20046;-77
2022/01/13 13:41:27;;;;;;;1.88;0.50;;;;;;;6.74;100.00;102153.06;6148478;23;20049;-78
2022/01/13 13:44:34;;;;;;;4.40;1.55;;;;;;;6.73;100.00;102156.25;6115138;23;20039;-78
2022/01/13 13:47:37;;;;;;;0.22;0.22;;;;;;;6.78;100.00;102153.06;6102525;23;20046;-77
2022/01/13 13:50:41;;;;;;;0.40;0.32;;;;;;;6.82;100.00;102151.13;6148268;23;20102;-77
2022/01/13 13:54:13;;;;;;;0.10;0.10;;;;;;;7.08;100.00;102145.19;6116441;23;20039;-77
2022/01/13 13:57:17;;;;;;;0.30;0.30;;;;;;;7.14;100.00;102143.63;6128963;23;20050;-77
2022/01/13 14:00:26;;;;;;;3.70;0.57;;;;;;;7.09;100.00;102146.78;6142132;23;20042;-77
2022/01/13 14:03:42;;;;;;;0.20;0.20;;;;;;;7.17;100.00;102137.25;6117266;23;20048;-77
2022/01/13 14:06:45;;;;;;;0.10;0.08;;;;;;;7.34;100.00;102139.22;6115413;23;20042;-78
2022/01/13 14:10:01;;;;;;;0.10;0.10;;;;;;;7.29;100.00;102138.84;6129858;23;20042;-78
2022/01/13 14:13:07;;;;;;;0.45;0.45;;;;;;;7.21;100.00;102140.81;6129894;23;20500;-77
2022/01/13 14:16:11;;;;;;;0.70;0.22;;;;;;;7.05;100.00;102140.44;6115238;23;20039;-77
2022/01/13 14:19:15;;;;;;;0.50;0.50;;;;;;;7.02;100.00;102144.00;6148040;23;20428;-77
2022/01/13 14:22:21;;;;;;;1.08;1.08;;;;;;;7.10;100.00;102156.69;6130958;23;20038;-78
2022/01/13 14:25:29;;;;;;;0.50;0.45;;;;;;;7.11;100.00;102133.31;6084862;23;20039;-78
2022/01/13 14:28:38;;;;;;;1.17;0.47;;;;;;;7.24;100.00;102137.25;6148678;23;20037;-77
2022/01/13 14:31:41;;;;;;;0.17;0.17;;;;;;;7.24;100.00;102137.25;6108751;23;20320;-77
2022/01/13 14:35:03;;;;;;;0.90;0.40;;;;;;;7.05;100.00;102140.44;6092564;23;20039;-77
2022/01/13 14:38:12;;;;;;;0.40;0.40;;;;;;;6.95;100.00;102129.38;6096430;23;20042;-76
2022/01/13 14:41:17;;;;;;;0.38;0.38;;;;;;;6.86;100.00;102130.53;6149237;23;20038;-77
2022/01/13 14:44:20;;;;;;;0.55;0.50;;;;;;;6.99;100.00;102142.03;6128180;23;20377;-79
2022/01/13 14:47:23;;;;;;;2.25;0.82;;;;;;;7.00;100.00;102145.56;6145567;23;20042;-78